createdAt,value
2023-05-13T00:02:31.099Z,49.28
2023-05-13T00:07:38.363Z,49.27
2023-05-13T00:12:45.666Z,49.47
2023-05-13T00:17:53.168Z,49.48
2023-05-13T00:23:00.574Z,49.40
2023-05-13T00:28:07.856Z,49.64
2023-05-13T00:33:15.574Z,49.31
2023-05-13T00:38:22.775Z,49.63
2023-05-13T00:43:30.211Z,49.52
2023-05-13T00:48:37.475Z,49.58
2023-05-13T00:53:44.845Z,49.53
2023-05-13T00:58:52.078Z,49.53
2023-05-13T01:04:03.243Z,49.97
2023-05-13T01:09:13.602Z,50.02
2023-05-13T01:14:24.148Z,50.06
2023-05-13T01:19:37.736Z,50.25
2023-05-13T01:24:46.129Z,50.05
2023-05-13T01:29:53.438Z,50.10
2023-05-13T01:35:01.087Z,50.22
2023-05-13T01:40:20.330Z,50.24
2023-05-13T01:45:32.632Z,50.09
2023-05-13T01:50:40.239Z,50.13
2023-05-13T01:55:47.659Z,50.35
2023-05-13T02:00:55.173Z,50.24
2023-05-13T02:06:02.271Z,50.33
2023-05-13T02:11:09.576Z,50.13
2023-05-13T02:16:18.268Z,50.42
2023-05-13T02:21:25.610Z,50.31
2023-05-13T02:26:32.690Z,50.42
2023-05-13T02:31:39.688Z,50.31
2023-05-13T02:36:46.828Z,50.33
2023-05-13T02:41:54.217Z,50.33
2023-05-13T02:47:01.881Z,50.43
2023-05-13T02:52:09.560Z,50.44
2023-05-13T02:57:16.832Z,50.32
2023-05-13T03:02:23.953Z,50.40
2023-05-13T03:07:31.676Z,50.40
2023-05-13T03:12:39.004Z,50.54
2023-05-13T03:17:46.299Z,50.58
2023-05-13T03:22:53.671Z,50.51
2023-05-13T03:28:01.203Z,50.45
2023-05-13T03:33:08.323Z,50.53
2023-05-13T03:38:15.783Z,50.51
2023-05-13T03:43:23.097Z,50.48
2023-05-13T03:48:30.385Z,50.33
2023-05-13T03:53:37.591Z,50.14
2023-05-13T03:58:44.601Z,50.15
2023-05-13T04:03:51.675Z,50.15
2023-05-13T04:08:58.582Z,49.95
2023-05-13T04:14:05.780Z,50.28
2023-05-13T04:19:13.369Z,50.52
2023-05-13T04:24:20.528Z,50.55
2023-05-13T04:29:27.886Z,50.41
2023-05-13T04:34:35.597Z,50.27
2023-05-13T04:39:42.856Z,50.27
2023-05-13T04:44:50.035Z,50.27
2023-05-13T04:49:57.122Z,49.96
2023-05-13T04:55:04.562Z,50.39
2023-05-13T05:00:12.380Z,50.17
2023-05-13T05:05:19.768Z,50.17
2023-05-13T05:10:26.737Z,50.25
2023-05-13T05:15:34.131Z,50.24
2023-05-13T05:20:41.502Z,49.90
2023-05-13T05:25:53.152Z,50.03
2023-05-13T05:31:05.678Z,49.81
2023-05-13T05:36:13.194Z,49.91
2023-05-13T05:41:20.365Z,49.94
2023-05-13T05:46:27.606Z,49.83
2023-05-13T05:51:34.955Z,49.74
2023-05-13T05:56:42.367Z,49.80
2023-05-13T06:01:49.513Z,49.58
2023-05-13T06:06:57.299Z,49.63
2023-05-13T06:12:23.207Z,50.19
2023-05-13T06:17:30.613Z,50.18
2023-05-13T06:22:38.190Z,50.38
2023-05-13T06:27:45.489Z,50.28
2023-05-13T06:33:01.705Z,50.45
2023-05-13T06:38:10.488Z,50.53
2023-05-13T06:43:18.488Z,50.56
2023-05-13T06:48:25.777Z,50.46
2023-05-13T06:53:33.570Z,50.67
2023-05-13T06:58:41.001Z,50.65
2023-05-13T07:03:48.092Z,50.58
2023-05-13T07:08:55.174Z,50.52
2023-05-13T07:14:02.720Z,50.56
2023-05-13T07:19:10.189Z,50.38
2023-05-13T07:24:17.563Z,50.42
2023-05-13T07:29:25.851Z,50.55
2023-05-13T07:34:34.263Z,50.53
2023-05-13T07:39:41.529Z,50.36
2023-05-13T07:44:49.157Z,50.28
2023-05-13T07:49:56.371Z,50.31
2023-05-13T07:55:03.662Z,50.20
2023-05-13T08:00:11.969Z,50.12
2023-05-13T08:05:19.212Z,49.94
2023-05-13T08:10:26.248Z,49.96
2023-05-13T08:15:33.268Z,49.89
2023-05-13T08:20:41.213Z,49.81
2023-05-13T08:25:48.440Z,49.73
2023-05-13T08:30:55.553Z,49.92
2023-05-13T08:36:02.961Z,49.78
2023-05-13T08:41:10.773Z,49.64
2023-05-13T08:46:18.926Z,49.49
2023-05-13T08:51:26.126Z,49.55
2023-05-13T08:56:33.675Z,49.47
2023-05-13T09:01:41.761Z,49.47
2023-05-13T09:06:49.775Z,49.59
2023-05-13T09:11:57.037Z,49.81
2023-05-13T09:17:04.884Z,49.46
2023-05-13T09:22:20.319Z,49.41
2023-05-13T09:27:38.035Z,49.38
2023-05-13T09:32:45.272Z,49.25
2023-05-13T09:37:52.563Z,49.44
2023-05-13T09:43:00.881Z,49.29
2023-05-13T09:48:10.127Z,49.51
2023-05-13T09:53:17.342Z,49.19
2023-05-13T09:58:25.034Z,49.03
2023-05-13T10:03:32.305Z,49.31
2023-05-13T10:08:40.625Z,49.24
2023-05-13T10:13:49.553Z,49.31
2023-05-13T10:18:56.874Z,49.19
2023-05-13T10:24:04.186Z,49.05
2023-05-13T10:29:12.286Z,49.33
2023-05-13T10:34:19.756Z,49.22
2023-05-13T10:39:49.543Z,49.01
2023-05-13T10:44:59.583Z,48.81
2023-05-13T10:50:09.173Z,49.07
2023-05-13T10:55:20.168Z,49.09
2023-05-13T11:00:32.551Z,49.17
2023-05-13T11:05:40.130Z,49.31
2023-05-13T11:10:57.023Z,49.51
2023-05-13T11:16:08.108Z,49.82
2023-05-13T11:21:15.512Z,49.44
2023-05-13T11:26:23.343Z,49.07
2023-05-13T11:31:44.101Z,49.09
2023-05-13T11:36:51.874Z,49.26
2023-05-13T11:42:02.022Z,49.14
2023-05-13T11:47:09.434Z,49.12
2023-05-13T11:52:17.156Z,48.93
2023-05-13T11:57:25.266Z,48.82
2023-05-13T12:02:35.390Z,48.63
2023-05-13T12:07:43.391Z,48.68
2023-05-13T12:12:50.857Z,48.65
2023-05-13T12:17:58.484Z,48.85
2023-05-13T12:23:06.599Z,49.07
2023-05-13T12:28:17.220Z,48.90
2023-05-13T12:33:25.064Z,48.65
2023-05-13T12:38:32.480Z,48.92
2023-05-13T12:43:39.964Z,48.78
2023-05-13T12:48:47.342Z,48.52
2023-05-13T12:53:54.899Z,48.54
2023-05-13T12:59:02.223Z,48.70
2023-05-13T13:04:09.630Z,48.67
2023-05-13T13:09:16.971Z,48.19
2023-05-13T13:14:26.473Z,48.61
2023-05-13T13:19:33.687Z,48.34
2023-05-13T13:24:40.961Z,48.65
2023-05-13T13:29:48.336Z,48.73
2023-05-13T13:34:55.424Z,48.75
2023-05-13T13:40:02.900Z,48.61
2023-05-13T13:45:10.975Z,48.37
2023-05-13T13:50:18.054Z,48.36
2023-05-13T13:55:25.674Z,48.81
2023-05-13T14:00:33.065Z,48.67
2023-05-13T14:05:40.518Z,48.67
2023-05-13T14:10:48.040Z,48.52
2023-05-13T14:15:55.425Z,48.42
2023-05-13T14:21:02.842Z,48.47
2023-05-13T14:26:11.181Z,48.39
2023-05-13T14:31:18.341Z,48.13
2023-05-13T14:36:27.048Z,48.39
2023-05-13T14:41:34.168Z,48.22
2023-05-13T14:46:42.126Z,48.06
2023-05-13T14:51:49.243Z,47.86
2023-05-13T14:56:57.183Z,47.91
2023-05-13T15:02:04.530Z,47.78
2023-05-13T15:07:11.678Z,47.95
2023-05-13T15:12:18.789Z,47.88
2023-05-13T15:17:25.571Z,47.92
2023-05-13T15:22:34.196Z,47.77
2023-05-13T15:27:42.927Z,48.09
2023-05-13T15:32:50.987Z,48.09
2023-05-13T15:37:58.397Z,47.85
2023-05-13T15:43:05.410Z,48.09
2023-05-13T15:48:13.010Z,47.90
2023-05-13T15:53:20.556Z,47.91
2023-05-13T15:58:27.885Z,47.73
2023-05-13T16:03:36.495Z,47.70
2023-05-13T16:08:45.054Z,47.81
2023-05-13T16:13:52.764Z,47.91
2023-05-13T16:19:00.409Z,47.79
2023-05-13T16:24:08.325Z,47.94
2023-05-13T16:29:15.732Z,47.93
2023-05-13T16:34:23.289Z,48.01
2023-05-13T16:39:30.873Z,47.92
2023-05-13T16:44:38.154Z,47.89
2023-05-13T16:49:45.757Z,47.95
2023-05-13T16:54:53.823Z,47.94
2023-05-13T17:00:01.016Z,48.02
2023-05-13T17:05:08.703Z,48.10
2023-05-13T17:10:16.076Z,48.04
2023-05-13T17:15:23.676Z,48.53
2023-05-13T17:20:31.055Z,48.70
2023-05-13T17:25:38.478Z,48.20
2023-05-13T17:30:45.381Z,48.32
2023-05-13T17:35:52.792Z,48.29
2023-05-13T17:41:00.072Z,48.27
2023-05-13T17:46:07.667Z,48.48
2023-05-13T17:51:15.133Z,48.33
2023-05-13T17:56:23.184Z,48.30
2023-05-13T18:01:30.325Z,48.30
2023-05-13T18:06:37.697Z,48.56
2023-05-13T18:11:45.044Z,48.67
2023-05-13T18:16:52.316Z,49.46
2023-05-13T18:21:59.638Z,49.62
2023-05-13T18:27:07.224Z,49.72
2023-05-13T18:32:14.553Z,49.64
2023-05-13T18:37:21.758Z,49.84
2023-05-13T18:42:30.028Z,49.79
2023-05-13T18:47:37.331Z,49.78
2023-05-13T18:52:44.813Z,49.77
2023-05-13T18:57:52.394Z,49.77
2023-05-13T19:02:59.779Z,49.93
2023-05-13T19:08:08.336Z,49.79
2023-05-13T19:13:17.264Z,50.00
2023-05-13T19:18:24.647Z,49.58
2023-05-13T19:23:32.825Z,49.43
2023-05-13T19:28:40.422Z,49.53
2023-05-13T19:33:47.874Z,49.72
2023-05-13T19:38:55.593Z,49.65
2023-05-13T19:44:03.093Z,49.84
2023-05-13T19:49:10.574Z,50.12
2023-05-13T19:54:17.682Z,49.97
2023-05-13T19:59:25.157Z,49.98
2023-05-13T20:04:33.082Z,49.97
2023-05-13T20:09:40.151Z,49.76
2023-05-13T20:14:48.334Z,49.94
2023-05-13T20:19:56.160Z,50.00
2023-05-13T20:25:03.369Z,50.06
2023-05-13T20:30:11.735Z,49.94
2023-05-13T20:35:18.650Z,49.85
2023-05-13T20:40:25.906Z,49.94
2023-05-13T20:45:33.247Z,50.01
2023-05-13T20:50:40.673Z,50.04
2023-05-13T20:55:47.909Z,50.29
2023-05-13T21:00:55.521Z,50.42
2023-05-13T21:06:03.083Z,50.19
2023-05-13T21:11:10.659Z,50.14
2023-05-13T21:16:17.819Z,50.00
2023-05-13T21:21:25.078Z,50.24
2023-05-13T21:26:32.222Z,50.23
2023-05-13T21:31:39.531Z,50.07
2023-05-13T21:36:46.653Z,50.21
2023-05-13T21:41:53.612Z,50.08
2023-05-13T21:47:00.696Z,50.25
2023-05-13T21:52:08.633Z,50.13
2023-05-13T21:57:15.964Z,50.25
2023-05-13T22:02:23.172Z,50.25
2023-05-13T22:07:30.649Z,50.38
2023-05-13T22:12:37.685Z,50.49
2023-05-13T22:17:45.083Z,50.47
2023-05-13T22:22:52.400Z,50.54
2023-05-13T22:27:59.492Z,50.45
2023-05-13T22:33:06.367Z,50.55
2023-05-13T22:38:13.933Z,50.61
2023-05-13T22:43:21.523Z,50.52
2023-05-13T22:48:29.132Z,50.66
2023-05-13T22:53:36.416Z,50.53
2023-05-13T22:58:43.615Z,50.44
2023-05-13T23:03:50.671Z,50.55
2023-05-13T23:08:57.743Z,50.62
2023-05-13T23:14:05.096Z,50.59
2023-05-13T23:19:12.445Z,50.77
2023-05-13T23:24:20.062Z,50.68
2023-05-13T23:29:28.036Z,50.68
2023-05-13T23:34:35.183Z,50.76
2023-05-13T23:39:42.403Z,50.90
2023-05-13T23:44:49.662Z,50.84
2023-05-13T23:49:58.353Z,50.66
2023-05-13T23:55:06.118Z,50.76
